createdAt,value
2017-12-11T00:00:40.423Z,4.70
2017-12-11T00:03:06.655Z,4.70
2017-12-11T00:05:32.940Z,4.70
2017-12-11T00:07:59.102Z,4.70
2017-12-11T00:10:25.299Z,4.70
2017-12-11T00:12:51.506Z,4.70
2017-12-11T00:15:18.507Z,4.70
2017-12-11T00:17:44.723Z,4.70
2017-12-11T00:20:10.931Z,4.70
2017-12-11T00:22:46.187Z,4.60
2017-12-11T00:25:12.471Z,4.60
2017-12-11T00:27:39.443Z,4.60
2017-12-11T00:30:05.650Z,4.60
2017-12-11T00:32:32.584Z,4.60
2017-12-11T00:34:59.507Z,4.60
2017-12-11T00:37:25.718Z,4.50
2017-12-11T00:39:51.953Z,4.60
2017-12-11T00:42:18.148Z,4.50
2017-12-11T00:44:44.399Z,4.50
2017-12-11T00:47:10.638Z,4.50
2017-12-11T00:49:36.817Z,4.60
2017-12-11T00:52:03.760Z,4.60
2017-12-11T00:54:30.722Z,4.60
2017-12-11T00:56:56.920Z,4.60
2017-12-11T00:59:23.911Z,4.50
2017-12-11T01:01:50.143Z,4.50
2017-12-11T01:04:16.318Z,4.60
2017-12-11T01:06:43.239Z,4.60
2017-12-11T01:09:09.510Z,4.60
2017-12-11T01:11:35.711Z,4.60
2017-12-11T01:14:02.663Z,4.60
2017-12-11T01:16:29.591Z,4.70
2017-12-11T01:18:56.607Z,4.70
2017-12-11T01:21:22.850Z,4.70
2017-12-11T01:23:49.124Z,4.70
2017-12-11T01:26:16.060Z,4.70
2017-12-11T01:28:42.226Z,4.70
2017-12-11T01:31:08.503Z,4.70
2017-12-11T01:33:35.382Z,4.60
2017-12-11T01:36:02.328Z,4.70
2017-12-11T01:38:28.587Z,4.70
2017-12-11T01:40:54.835Z,4.70
2017-12-11T01:43:21.087Z,4.70
2017-12-11T01:45:47.263Z,4.70
2017-12-11T01:48:13.473Z,4.80
2017-12-11T01:50:39.731Z,4.70
2017-12-11T01:53:05.922Z,4.80
2017-12-11T01:55:32.854Z,4.80
2017-12-11T01:57:59.798Z,4.80
2017-12-11T02:00:26.754Z,4.80
2017-12-11T02:02:53.723Z,4.80
2017-12-11T02:05:19.927Z,4.80
2017-12-11T02:07:46.882Z,4.70
2017-12-11T02:10:13.103Z,4.80
2017-12-11T02:12:40.055Z,4.80
2017-12-11T02:15:06.306Z,4.80
2017-12-11T02:17:32.495Z,4.80
2017-12-11T02:19:59.489Z,4.90
2017-12-11T02:22:25.782Z,4.90
2017-12-11T02:24:51.983Z,4.90
2017-12-11T02:27:18.219Z,4.90
2017-12-11T02:29:45.204Z,4.80
2017-12-11T02:32:11.436Z,4.80
2017-12-11T02:34:37.637Z,4.80
2017-12-11T02:37:04.597Z,4.80
2017-12-11T02:39:30.781Z,4.80
2017-12-11T02:41:57.035Z,4.80
2017-12-11T02:44:23.984Z,4.80
2017-12-11T02:46:50.981Z,4.80
2017-12-11T02:49:17.214Z,4.80
2017-12-11T02:51:43.522Z,4.80
2017-12-11T02:54:09.770Z,4.80
2017-12-11T02:56:36.003Z,4.80
2017-12-11T02:59:02.190Z,4.80
2017-12-11T03:01:28.384Z,4.80
2017-12-11T03:03:54.547Z,4.80
2017-12-11T03:06:20.767Z,4.80
2017-12-11T03:08:46.999Z,4.80
2017-12-11T03:11:13.216Z,4.80
2017-12-11T03:13:39.422Z,4.80
2017-12-11T03:16:05.601Z,4.80
2017-12-11T03:18:31.783Z,4.90
2017-12-11T03:20:57.986Z,4.90
2017-12-11T03:23:24.974Z,5.00
2017-12-11T03:25:51.159Z,4.90
2017-12-11T03:28:17.330Z,5.00
2017-12-11T03:30:44.284Z,5.00
2017-12-11T03:33:10.536Z,5.00
2017-12-11T03:35:36.736Z,5.10
2017-12-11T03:38:02.937Z,5.10
2017-12-11T03:40:29.867Z,5.10
2017-12-11T03:42:56.807Z,5.10
2017-12-11T03:45:22.985Z,5.10
2017-12-11T03:47:49.221Z,5.10
2017-12-11T03:50:15.444Z,5.10
2017-12-11T03:52:41.645Z,5.10
2017-12-11T03:55:08.562Z,5.20
2017-12-11T03:57:34.775Z,5.20
2017-12-11T04:00:01.021Z,5.20
2017-12-11T04:02:27.999Z,5.20
2017-12-11T04:04:54.926Z,5.20
2017-12-11T04:07:21.875Z,5.20
2017-12-11T04:09:48.848Z,5.20
2017-12-11T04:12:15.048Z,5.20
2017-12-11T04:14:41.255Z,5.20
2017-12-11T04:17:07.494Z,5.10
2017-12-11T04:19:33.701Z,5.20
2017-12-11T04:21:59.851Z,5.10
2017-12-11T04:24:26.797Z,5.00
2017-12-11T04:26:52.959Z,5.00
2017-12-11T04:29:19.191Z,5.10
2017-12-11T04:31:45.331Z,5.10
2017-12-11T04:34:11.487Z,5.10
2017-12-11T04:36:37.656Z,5.10
2017-12-11T04:39:04.520Z,5.10
2017-12-11T04:41:30.739Z,5.10
2017-12-11T04:43:56.907Z,5.00
2017-12-11T04:46:23.098Z,5.00
2017-12-11T04:48:49.294Z,5.00
2017-12-11T04:51:16.185Z,5.00
2017-12-11T04:53:42.413Z,5.00
2017-12-11T04:56:08.588Z,5.00
2017-12-11T04:58:34.754Z,4.90
2017-12-11T05:01:00.988Z,4.80
2017-12-11T05:03:27.168Z,4.80
2017-12-11T05:05:54.121Z,4.70
2017-12-11T05:08:21.039Z,4.70
2017-12-11T05:10:47.294Z,4.70
2017-12-11T05:13:14.191Z,4.60
2017-12-11T05:15:40.364Z,4.60
2017-12-11T05:18:06.593Z,4.60
2017-12-11T05:20:33.517Z,4.60
2017-12-11T05:23:00.514Z,4.50
2017-12-11T05:25:26.757Z,4.50
2017-12-11T05:27:53.018Z,4.50
2017-12-11T05:30:19.616Z,4.50
2017-12-11T05:32:45.800Z,4.50
2017-12-11T05:35:12.046Z,4.60
2017-12-11T05:37:38.989Z,4.70
2017-12-11T05:40:05.915Z,4.70
2017-12-11T05:42:32.168Z,4.70
2017-12-11T05:44:58.447Z,4.70
2017-12-11T05:47:24.665Z,4.80
2017-12-11T05:49:50.859Z,4.80
2017-12-11T05:52:17.066Z,4.80
2017-12-11T05:54:43.244Z,4.80
2017-12-11T05:57:09.429Z,4.90
2017-12-11T05:59:36.439Z,4.90
2017-12-11T06:02:02.646Z,4.80
2017-12-11T06:04:28.850Z,4.90
2017-12-11T06:06:55.044Z,4.90
2017-12-11T06:09:22.022Z,4.90
2017-12-11T06:11:48.169Z,4.90
2017-12-11T06:14:14.327Z,4.90
2017-12-11T06:16:40.500Z,4.90
2017-12-11T06:19:06.693Z,4.90
2017-12-11T06:21:32.885Z,4.80
2017-12-11T06:23:59.079Z,4.90
2017-12-11T06:26:25.271Z,4.90
2017-12-11T06:28:51.487Z,4.90
2017-12-11T06:31:17.646Z,4.90
2017-12-11T06:33:44.608Z,4.90
2017-12-11T06:36:10.789Z,4.90
2017-12-11T06:38:37.067Z,4.90
2017-12-11T06:41:03.659Z,4.90
2017-12-11T06:43:29.875Z,5.00
2017-12-11T06:45:56.041Z,4.90
2017-12-11T06:48:23.002Z,4.90
2017-12-11T06:50:49.143Z,4.90
2017-12-11T06:53:15.311Z,4.90
2017-12-11T06:55:41.479Z,5.00
2017-12-11T06:58:08.442Z,4.80
2017-12-11T07:00:34.674Z,4.80
2017-12-11T07:03:00.814Z,4.90
2017-12-11T07:05:27.049Z,4.90
2017-12-11T07:07:53.228Z,4.90
2017-12-11T07:10:20.171Z,4.80
2017-12-11T07:12:47.159Z,4.80
2017-12-11T07:15:13.378Z,4.80
2017-12-11T07:17:39.595Z,4.80
2017-12-11T07:20:06.276Z,4.80
2017-12-11T07:22:32.509Z,4.80
2017-12-11T07:24:58.751Z,4.80
2017-12-11T07:27:24.971Z,4.80
2017-12-11T07:29:51.885Z,4.90
2017-12-11T07:32:18.079Z,4.80
2017-12-11T07:34:44.298Z,4.80
2017-12-11T07:37:11.251Z,4.80
2017-12-11T07:39:38.163Z,4.80
2017-12-11T07:42:04.347Z,4.80
2017-12-11T07:44:30.506Z,4.70
2017-12-11T07:46:56.777Z,4.80
2017-12-11T07:49:23.023Z,4.80
2017-12-11T07:51:49.224Z,4.90
2017-12-11T07:54:16.135Z,5.00
2017-12-11T07:56:42.334Z,4.90
2017-12-11T07:59:08.520Z,5.00
2017-12-11T08:01:35.492Z,5.00
2017-12-11T08:04:01.670Z,5.00
2017-12-11T08:06:27.870Z,5.00
2017-12-11T08:08:54.292Z,5.10
2017-12-11T08:11:20.535Z,5.10
2017-12-11T08:13:46.703Z,5.10
2017-12-11T08:16:12.855Z,5.10
2017-12-11T08:18:39.783Z,5.20
2017-12-11T08:21:06.754Z,5.20
2017-12-11T08:23:32.904Z,5.20
2017-12-11T08:25:59.126Z,5.20
2017-12-11T08:28:25.260Z,5.20
2017-12-11T08:30:51.525Z,5.10
2017-12-11T08:33:17.716Z,5.20
2017-12-11T08:35:43.891Z,5.20
2017-12-11T08:38:10.859Z,5.20
2017-12-11T08:40:37.003Z,5.20
2017-12-11T08:43:03.219Z,5.20
2017-12-11T08:45:29.999Z,5.20
2017-12-11T08:47:56.325Z,5.20
2017-12-11T08:50:22.465Z,5.30
2017-12-11T08:52:48.626Z,5.30
2017-12-11T08:55:15.605Z,5.30
2017-12-11T08:57:41.841Z,5.30
2017-12-11T09:00:08.093Z,5.30
2017-12-11T09:02:34.308Z,5.30
2017-12-11T09:05:00.757Z,5.30
2017-12-11T09:07:26.938Z,5.30
2017-12-11T09:09:53.202Z,5.30
2017-12-11T09:12:19.533Z,5.30
2017-12-11T09:14:45.782Z,5.30
2017-12-11T09:17:12.022Z,5.30
2017-12-11T09:19:38.987Z,5.30
2017-12-11T09:22:05.178Z,5.30
2017-12-11T09:24:32.119Z,5.40
2017-12-11T09:26:58.291Z,5.40
2017-12-11T09:29:24.424Z,5.40
2017-12-11T09:31:50.579Z,5.40
2017-12-11T09:34:16.768Z,5.40
2017-12-11T09:36:43.730Z,5.40
2017-12-11T09:39:09.943Z,5.40
2017-12-11T09:41:36.172Z,5.40
2017-12-11T09:44:02.357Z,5.40
2017-12-11T09:46:29.287Z,5.40
2017-12-11T09:48:55.546Z,5.40
2017-12-11T09:51:21.660Z,5.50
2017-12-11T09:53:48.609Z,5.50
2017-12-11T09:56:15.553Z,5.50
2017-12-11T09:58:42.447Z,5.50
2017-12-11T10:01:08.625Z,5.50
2017-12-11T10:03:34.888Z,5.50
2017-12-11T10:06:01.089Z,5.50
2017-12-11T10:08:27.317Z,5.50
2017-12-11T10:10:53.544Z,5.50
2017-12-11T10:13:19.761Z,5.50
2017-12-11T10:15:45.948Z,5.60
2017-12-11T10:18:12.171Z,5.60
2017-12-11T10:20:38.336Z,5.60
2017-12-11T10:23:04.521Z,5.60
2017-12-11T10:25:30.799Z,5.70
2017-12-11T10:27:57.774Z,5.70
2017-12-11T10:30:24.749Z,5.70
2017-12-11T10:32:50.915Z,5.70
2017-12-11T10:35:17.093Z,5.70
2017-12-11T10:37:43.271Z,5.80
2017-12-11T10:40:09.452Z,5.80
2017-12-11T10:42:35.678Z,5.80
2017-12-11T10:45:02.647Z,5.70
2017-12-11T10:47:28.861Z,5.70
2017-12-11T10:49:55.109Z,5.70
2017-12-11T10:52:21.352Z,5.60
2017-12-11T10:54:47.562Z,5.70
2017-12-11T10:57:13.756Z,5.70
2017-12-11T10:59:39.928Z,5.70
2017-12-11T11:02:06.138Z,5.60
2017-12-11T11:04:32.371Z,5.70
2017-12-11T11:06:58.587Z,5.80
2017-12-11T11:09:24.794Z,5.90
2017-12-11T11:11:51.737Z,5.80
2017-12-11T11:14:17.951Z,5.80
2017-12-11T11:16:44.886Z,6.00
2017-12-11T11:19:11.056Z,6.00
2017-12-11T11:21:37.279Z,6.00
2017-12-11T11:24:03.467Z,6.00
2017-12-11T11:26:29.658Z,6.00
2017-12-11T11:28:55.894Z,6.00
2017-12-11T11:31:22.072Z,6.00
2017-12-11T11:33:49.034Z,6.00
2017-12-11T11:36:15.200Z,6.00
2017-12-11T11:38:41.401Z,6.10
2017-12-11T11:41:07.574Z,6.10
2017-12-11T11:43:34.522Z,6.10
2017-12-11T11:46:00.709Z,6.10
2017-12-11T11:48:26.887Z,6.10
2017-12-11T11:50:53.859Z,6.10
2017-12-11T11:53:20.047Z,6.10
2017-12-11T11:55:46.296Z,6.20
2017-12-11T11:58:13.270Z,6.20
2017-12-11T12:00:39.539Z,6.30
2017-12-11T12:03:05.694Z,6.30
2017-12-11T12:05:32.638Z,6.30
2017-12-11T12:07:59.572Z,6.30
2017-12-11T12:10:25.858Z,6.30
2017-12-11T12:12:52.056Z,6.30
2017-12-11T12:15:18.310Z,6.30
2017-12-11T12:17:44.609Z,6.30
2017-12-11T12:20:10.828Z,6.30
2017-12-11T12:22:37.767Z,6.30
2017-12-11T12:25:04.710Z,6.30
2017-12-11T12:27:31.717Z,6.30
2017-12-11T12:29:57.956Z,6.30
2017-12-11T12:32:24.147Z,6.20
2017-12-11T12:34:50.312Z,6.20
2017-12-11T12:37:16.477Z,6.10
2017-12-11T12:39:43.402Z,6.00
2017-12-11T12:42:09.545Z,6.00
2017-12-11T12:44:36.446Z,6.10
2017-12-11T12:47:04.393Z,6.10
2017-12-11T12:49:30.640Z,6.20
2017-12-11T12:51:56.811Z,6.20
2017-12-11T12:54:23.735Z,6.30
2017-12-11T12:56:50.698Z,6.30
2017-12-11T12:59:17.601Z,6.30
2017-12-11T13:01:43.790Z,6.30
2017-12-11T13:04:10.703Z,6.30
2017-12-11T13:06:37.766Z,6.30
2017-12-11T13:09:04.748Z,6.40
2017-12-11T13:11:31.004Z,6.30
2017-12-11T13:13:57.138Z,6.40
2017-12-11T13:16:23.244Z,6.40
2017-12-11T13:18:49.399Z,6.40
2017-12-11T13:21:15.539Z,6.40
2017-12-11T13:23:41.727Z,6.40
2017-12-11T13:26:07.914Z,6.40
2017-12-11T13:28:34.819Z,6.40
2017-12-11T13:31:01.017Z,6.50
2017-12-11T13:33:27.246Z,6.50
2017-12-11T13:35:53.443Z,6.50
2017-12-11T13:38:20.322Z,6.50
2017-12-11T13:40:46.593Z,6.50
2017-12-11T13:43:13.511Z,6.60
2017-12-11T13:45:39.702Z,6.50
2017-12-11T13:48:05.951Z,6.50
2017-12-11T13:50:32.155Z,6.50
2017-12-11T13:52:58.301Z,6.50
2017-12-11T13:55:24.566Z,6.60
2017-12-11T13:57:51.569Z,6.60
2017-12-11T14:00:17.799Z,6.60
2017-12-11T14:02:44.032Z,6.70
2017-12-11T14:05:10.235Z,6.70
2017-12-11T14:07:36.404Z,6.70
2017-12-11T14:10:02.634Z,6.70
2017-12-11T14:12:28.764Z,6.60
2017-12-11T14:14:54.898Z,6.50
2017-12-11T14:17:21.110Z,6.50
2017-12-11T14:19:47.317Z,6.50
2017-12-11T14:22:13.514Z,6.50
2017-12-11T14:24:40.509Z,6.50
2017-12-11T14:27:06.742Z,6.40
2017-12-11T14:29:33.035Z,6.50
2017-12-11T14:31:59.239Z,6.60
2017-12-11T14:34:25.459Z,6.70
2017-12-11T14:36:52.415Z,6.80
2017-12-11T14:39:19.401Z,6.80
2017-12-11T14:41:45.639Z,6.80
2017-12-11T14:44:11.823Z,6.80
2017-12-11T14:46:38.795Z,6.70
2017-12-11T14:49:05.005Z,6.70
2017-12-11T14:51:31.164Z,6.80
2017-12-11T14:53:57.406Z,7.00
2017-12-11T14:56:24.391Z,6.90
2017-12-11T14:58:51.362Z,6.90
2017-12-11T15:01:17.605Z,6.90
2017-12-11T15:03:43.837Z,6.90
2017-12-11T15:06:10.007Z,6.90
2017-12-11T15:08:36.187Z,6.80
2017-12-11T15:11:02.394Z,6.70
2017-12-11T15:13:28.544Z,6.60
2017-12-11T15:15:54.843Z,6.50
2017-12-11T15:18:21.022Z,6.40
2017-12-11T15:20:47.158Z,6.40
2017-12-11T15:23:13.369Z,6.40
2017-12-11T15:25:39.548Z,6.40
2017-12-11T15:28:06.516Z,6.40
2017-12-11T15:30:32.784Z,6.40
2017-12-11T15:32:58.984Z,6.40
2017-12-11T15:35:25.156Z,6.40
2017-12-11T15:37:51.449Z,6.30
2017-12-11T15:40:17.698Z,6.40
2017-12-11T15:42:43.860Z,6.50
2017-12-11T15:45:10.836Z,6.50
2017-12-11T15:47:37.042Z,6.50
2017-12-11T15:50:03.256Z,6.50
2017-12-11T15:52:30.244Z,6.40
2017-12-11T15:54:56.477Z,6.40
2017-12-11T15:57:22.706Z,6.30
2017-12-11T15:59:49.000Z,6.30
2017-12-11T16:02:15.248Z,6.20
2017-12-11T16:04:41.519Z,6.20
2017-12-11T16:07:07.701Z,6.20
2017-12-11T16:09:33.917Z,6.30
2017-12-11T16:12:00.876Z,6.40
2017-12-11T16:14:27.116Z,6.30
2017-12-11T16:16:53.351Z,6.40
2017-12-11T16:19:19.570Z,6.40
2017-12-11T16:21:45.743Z,6.40
2017-12-11T16:24:11.962Z,6.40
2017-12-11T16:26:38.170Z,6.40
2017-12-11T16:29:04.386Z,6.40
2017-12-11T16:31:30.586Z,6.30
2017-12-11T16:33:57.568Z,6.20
2017-12-11T16:39:36.971Z,6.20
2017-12-11T16:42:03.153Z,6.20
2017-12-11T16:44:29.363Z,6.20
2017-12-11T16:46:55.576Z,6.20
2017-12-11T16:49:21.877Z,6.20
2017-12-11T16:51:48.586Z,6.20
2017-12-11T16:54:14.847Z,6.20
2017-12-11T16:56:41.823Z,6.10
2017-12-11T16:59:08.055Z,6.10
2017-12-11T17:01:34.272Z,6.10
2017-12-11T17:04:01.213Z,6.10
2017-12-11T17:06:28.254Z,6.10
2017-12-11T17:08:55.232Z,6.00
2017-12-11T17:11:21.395Z,6.00
2017-12-11T17:13:47.594Z,6.00
2017-12-11T17:16:13.754Z,6.00
2017-12-11T17:18:39.993Z,6.10
2017-12-11T17:21:06.222Z,6.10
2017-12-11T17:23:32.340Z,6.10
2017-12-11T17:25:58.499Z,6.10
2017-12-11T17:28:25.464Z,5.90
2017-12-11T17:30:51.690Z,5.90
2017-12-11T17:33:17.924Z,6.00
2017-12-11T17:35:44.166Z,5.90
2017-12-11T17:38:10.385Z,6.00
2017-12-11T17:40:36.535Z,6.00
2017-12-11T17:43:02.762Z,6.00
2017-12-11T17:45:28.937Z,6.00
2017-12-11T17:47:55.831Z,6.00
2017-12-11T17:50:22.041Z,6.00
2017-12-11T17:52:48.303Z,6.00
2017-12-11T17:55:15.323Z,6.00
2017-12-11T17:57:41.536Z,6.00
2017-12-11T18:00:07.732Z,6.00
2017-12-11T18:02:34.782Z,6.00
2017-12-11T18:05:01.719Z,6.00
2017-12-11T18:07:27.957Z,6.00
2017-12-11T18:09:54.875Z,6.00
2017-12-11T18:12:21.070Z,5.90
2017-12-11T18:14:47.261Z,5.90
2017-12-11T18:17:14.180Z,5.90
2017-12-11T18:19:44.212Z,6.00
2017-12-11T18:22:10.441Z,6.00
2017-12-11T18:24:37.366Z,6.00
2017-12-11T18:27:03.658Z,5.90
2017-12-11T18:29:29.881Z,6.00
2017-12-11T18:31:56.157Z,6.00
2017-12-11T18:34:22.427Z,6.00
2017-12-11T18:36:48.639Z,6.00
2017-12-11T18:39:15.610Z,5.90
2017-12-11T18:41:41.783Z,5.90
2017-12-11T18:44:07.982Z,5.90
2017-12-11T18:46:34.215Z,5.90
2017-12-11T18:49:00.428Z,5.90
2017-12-11T18:51:26.568Z,5.80
2017-12-11T18:53:52.758Z,5.80
2017-12-11T18:56:19.660Z,5.80
2017-12-11T18:58:45.868Z,5.80
2017-12-11T19:01:12.823Z,5.80
2017-12-11T19:03:39.027Z,5.70
2017-12-11T19:06:05.247Z,5.70
2017-12-11T19:08:31.475Z,5.70
2017-12-11T19:10:57.584Z,5.80
2017-12-11T19:13:24.532Z,5.90
2017-12-11T19:15:50.763Z,5.80
2017-12-11T19:18:17.017Z,5.90
2017-12-11T19:20:43.234Z,5.90
2017-12-11T19:23:09.435Z,5.90
2017-12-11T19:25:36.403Z,5.80
2017-12-11T19:28:02.563Z,5.90
2017-12-11T19:30:28.753Z,5.80
2017-12-11T19:32:54.969Z,5.90
2017-12-11T19:35:21.974Z,5.90
2017-12-11T19:37:48.211Z,5.80
2017-12-11T19:40:14.388Z,5.90
2017-12-11T19:42:40.675Z,6.00
2017-12-11T19:45:07.669Z,6.00
2017-12-11T19:47:33.867Z,6.00
2017-12-11T19:50:00.854Z,6.00
2017-12-11T19:52:27.091Z,6.00
2017-12-11T19:54:53.272Z,6.00
2017-12-11T19:57:20.238Z,6.00
2017-12-11T19:59:46.430Z,6.00
2017-12-11T20:02:12.620Z,6.00
2017-12-11T20:04:38.857Z,5.90
2017-12-11T20:07:05.081Z,5.90
2017-12-11T20:09:31.289Z,5.90
2017-12-11T20:11:57.471Z,5.90
2017-12-11T20:14:23.582Z,5.90
2017-12-11T20:16:50.698Z,5.90
2017-12-11T20:19:16.904Z,5.90
2017-12-11T20:21:43.060Z,5.90
2017-12-11T20:24:09.225Z,6.00
2017-12-11T20:29:44.542Z,5.90
2017-12-11T20:32:11.114Z,6.00
2017-12-11T20:34:37.308Z,6.00
2017-12-11T20:37:03.535Z,5.90
2017-12-11T20:39:29.732Z,5.90
2017-12-11T20:41:56.631Z,5.90
2017-12-11T20:44:22.847Z,5.80
2017-12-11T20:46:49.099Z,5.90
2017-12-11T20:49:15.344Z,5.80
2017-12-11T20:51:42.255Z,5.80
2017-12-11T20:54:08.450Z,5.80
2017-12-11T20:56:34.676Z,5.80
2017-12-11T20:59:00.827Z,5.90
2017-12-11T21:01:27.060Z,5.80
2017-12-11T21:03:53.220Z,5.90
2017-12-11T21:06:19.472Z,5.90
2017-12-11T21:08:46.469Z,5.90
2017-12-11T21:11:12.740Z,5.80
2017-12-11T21:13:39.687Z,5.90
2017-12-11T21:16:06.655Z,5.90
2017-12-11T21:18:32.926Z,5.80
2017-12-11T21:20:59.853Z,5.80
2017-12-11T21:23:26.158Z,5.80
2017-12-11T21:25:52.350Z,5.70
2017-12-11T21:28:18.637Z,5.80
2017-12-11T21:30:45.285Z,5.80
2017-12-11T21:33:11.509Z,5.80
2017-12-11T21:35:37.738Z,5.80
2017-12-11T21:38:03.975Z,5.90
2017-12-11T21:40:30.171Z,5.90
2017-12-11T21:42:56.440Z,5.90
2017-12-11T21:45:23.475Z,5.90
2017-12-11T21:47:49.633Z,5.90
2017-12-11T21:50:15.816Z,5.90
2017-12-11T21:52:42.061Z,5.90
2017-12-11T21:55:08.279Z,5.90
2017-12-11T21:57:34.482Z,5.90
2017-12-11T22:00:00.763Z,5.90
2017-12-11T22:02:26.973Z,5.90
2017-12-11T22:04:53.173Z,5.80
2017-12-11T22:07:19.377Z,5.80
2017-12-11T22:09:46.327Z,5.80
2017-12-11T22:12:12.588Z,5.70
2017-12-11T22:14:38.866Z,5.70
2017-12-11T22:17:05.835Z,5.80
2017-12-11T22:19:32.048Z,5.70
2017-12-11T22:21:59.232Z,5.80
2017-12-11T22:24:25.445Z,5.80
2017-12-11T22:26:51.590Z,5.70
2017-12-11T22:29:17.820Z,5.70
2017-12-11T22:31:44.004Z,5.70
2017-12-11T22:34:10.958Z,5.70
2017-12-11T22:36:37.178Z,5.70
2017-12-11T22:39:04.055Z,5.70
2017-12-11T22:41:30.259Z,5.70
2017-12-11T22:43:57.245Z,5.70
2017-12-11T22:46:23.455Z,5.70
2017-12-11T22:48:49.609Z,5.70
2017-12-11T22:51:15.894Z,5.70
2017-12-11T22:53:42.130Z,5.60
2017-12-11T22:56:08.340Z,5.60
2017-12-11T22:58:35.351Z,5.60
2017-12-11T23:01:01.542Z,5.60
2017-12-11T23:03:27.743Z,5.60
2017-12-11T23:05:54.673Z,5.60
2017-12-11T23:08:21.654Z,5.60
2017-12-11T23:10:47.906Z,5.60
2017-12-11T23:13:14.103Z,5.60
2017-12-11T23:15:40.279Z,5.60
2017-12-11T23:18:06.432Z,5.60
2017-12-11T23:20:32.632Z,5.60
2017-12-11T23:22:58.871Z,5.60
2017-12-11T23:25:25.814Z,5.70
2017-12-11T23:27:52.004Z,5.60
2017-12-11T23:30:18.203Z,5.70
2017-12-11T23:32:45.136Z,5.60
2017-12-11T23:35:12.082Z,5.60
2017-12-11T23:37:38.990Z,5.50
2017-12-11T23:40:05.159Z,5.50
2017-12-11T23:42:32.063Z,5.50
2017-12-11T23:44:58.302Z,5.50
2017-12-11T23:47:25.271Z,5.50
2017-12-11T23:49:52.189Z,5.40
2017-12-11T23:52:18.434Z,5.40
2017-12-11T23:54:45.356Z,5.50
2017-12-11T23:57:11.607Z,5.40
2017-12-11T23:59:37.808Z,5.40
